createdAt,value
2017-08-11T00:00:47.725Z,17.24
2017-08-11T00:03:16.923Z,17.30
2017-08-11T00:05:45.984Z,17.31
2017-08-11T00:08:15.033Z,17.31
2017-08-11T00:10:44.099Z,17.30
2017-08-11T00:13:13.188Z,17.15
2017-08-11T00:15:42.247Z,17.04
2017-08-11T00:18:11.312Z,17.00
2017-08-11T00:20:40.371Z,16.98
2017-08-11T00:23:09.444Z,16.96
2017-08-11T00:25:38.515Z,16.95
2017-08-11T00:28:07.568Z,16.94
2017-08-11T00:30:36.637Z,16.94
2017-08-11T00:33:05.739Z,16.88
2017-08-11T00:35:34.795Z,16.90
2017-08-11T00:38:03.879Z,16.90
2017-08-11T00:40:32.951Z,16.84
2017-08-11T00:43:02.003Z,16.85
2017-08-11T00:45:31.095Z,16.87
2017-08-11T00:48:00.160Z,16.96
2017-08-11T00:50:29.208Z,16.95
2017-08-11T00:52:58.294Z,16.89
2017-08-11T00:55:27.364Z,16.73
2017-08-11T00:57:56.418Z,16.71
2017-08-11T01:00:25.473Z,16.59
2017-08-11T01:02:54.603Z,16.63
2017-08-11T01:05:23.691Z,16.60
2017-08-11T01:07:52.775Z,16.57
2017-08-11T01:10:21.838Z,16.59
2017-08-11T01:12:50.928Z,16.64
2017-08-11T01:15:20.059Z,16.65
2017-08-11T01:17:49.135Z,16.55
2017-08-11T01:20:18.206Z,16.45
2017-08-11T01:22:47.272Z,16.59
2017-08-11T01:25:16.331Z,16.63
2017-08-11T01:27:45.416Z,16.61
2017-08-11T01:30:14.668Z,16.66
2017-08-11T01:32:43.727Z,16.70
2017-08-11T01:35:12.798Z,16.75
2017-08-11T01:37:41.864Z,16.74
2017-08-11T01:40:10.965Z,16.66
2017-08-11T01:42:40.040Z,16.62
2017-08-11T01:45:09.154Z,16.56
2017-08-11T01:47:38.198Z,16.44
2017-08-11T01:50:07.279Z,16.44
2017-08-11T01:52:36.377Z,16.31
2017-08-11T01:55:05.443Z,16.16
2017-08-11T01:57:34.524Z,16.08
2017-08-11T02:00:03.705Z,16.05
2017-08-11T02:02:32.787Z,16.08
2017-08-11T02:05:01.855Z,16.02
2017-08-11T02:07:30.923Z,16.05
2017-08-11T02:09:59.994Z,16.02
2017-08-11T02:12:29.053Z,15.94
2017-08-11T02:14:58.112Z,15.89
2017-08-11T02:17:27.162Z,15.94
2017-08-11T02:19:56.224Z,15.93
2017-08-11T02:22:25.281Z,15.90
2017-08-11T02:24:54.352Z,15.95
2017-08-11T02:27:23.400Z,15.97
2017-08-11T02:29:52.461Z,15.89
2017-08-11T02:32:22.325Z,15.92
2017-08-11T02:34:51.411Z,15.96
2017-08-11T02:37:20.492Z,16.01
2017-08-11T02:39:49.552Z,15.98
2017-08-11T02:42:18.632Z,15.93
2017-08-11T02:44:47.710Z,15.81
2017-08-11T02:47:16.807Z,15.84
2017-08-11T02:49:45.879Z,15.78
2017-08-11T02:52:14.950Z,15.82
2017-08-11T02:54:44.026Z,15.87
2017-08-11T02:57:13.112Z,15.83
2017-08-11T02:59:42.390Z,15.79
2017-08-11T03:02:11.464Z,15.72
2017-08-11T03:04:40.534Z,15.73
2017-08-11T03:07:09.632Z,15.76
2017-08-11T03:09:38.697Z,15.74
2017-08-11T03:12:07.739Z,15.68
2017-08-11T03:14:36.904Z,15.68
2017-08-11T03:17:06.015Z,15.70
2017-08-11T03:19:35.054Z,15.73
2017-08-11T03:22:04.120Z,15.70
2017-08-11T03:24:33.183Z,15.69
2017-08-11T03:27:02.240Z,15.63
2017-08-11T03:29:31.315Z,15.69
2017-08-11T03:32:00.379Z,15.61
2017-08-11T03:34:29.452Z,15.63
2017-08-11T03:36:58.551Z,15.62
2017-08-11T03:39:27.640Z,15.64
2017-08-11T03:41:56.788Z,15.58
2017-08-11T03:44:25.862Z,15.56
2017-08-11T03:46:54.927Z,15.62
2017-08-11T03:49:24.002Z,15.65
2017-08-11T03:51:53.091Z,15.67
2017-08-11T03:54:22.165Z,15.69
2017-08-11T03:56:51.219Z,15.71
2017-08-11T03:59:20.291Z,15.75
2017-08-11T04:01:49.350Z,15.74
2017-08-11T04:04:18.420Z,15.71
2017-08-11T04:06:47.488Z,15.78
2017-08-11T04:09:16.531Z,15.67
2017-08-11T04:11:45.578Z,15.66
2017-08-11T04:14:14.672Z,15.66
2017-08-11T04:16:43.755Z,15.60
2017-08-11T04:19:12.892Z,15.55
2017-08-11T04:21:41.964Z,15.51
2017-08-11T04:24:11.335Z,15.51
2017-08-11T04:26:40.384Z,15.49
2017-08-11T04:29:09.474Z,15.50
2017-08-11T04:31:38.552Z,15.51
2017-08-11T04:34:07.667Z,15.53
2017-08-11T04:36:36.711Z,15.51
2017-08-11T04:39:05.856Z,15.52
2017-08-11T04:41:34.944Z,15.50
2017-08-11T04:44:04.043Z,15.49
2017-08-11T04:46:33.167Z,15.58
2017-08-11T04:49:02.285Z,15.62
2017-08-11T04:51:31.309Z,15.64
2017-08-11T04:54:00.369Z,15.67
2017-08-11T04:56:29.419Z,15.61
2017-08-11T04:58:58.496Z,15.65
2017-08-11T05:01:27.603Z,15.62
2017-08-11T05:03:56.663Z,15.58
2017-08-11T05:06:25.762Z,15.60
2017-08-11T05:08:54.795Z,15.64
2017-08-11T05:11:23.870Z,15.56
2017-08-11T05:13:52.932Z,15.55
2017-08-11T05:16:21.993Z,15.51
2017-08-11T05:18:51.069Z,15.53
2017-08-11T05:21:20.120Z,15.59
2017-08-11T05:23:49.202Z,15.60
2017-08-11T05:26:18.268Z,15.66
2017-08-11T05:28:47.404Z,15.68
2017-08-11T05:31:16.495Z,15.74
2017-08-11T05:33:45.563Z,15.80
2017-08-11T05:36:14.630Z,15.87
2017-08-11T05:38:43.732Z,15.89
2017-08-11T05:41:12.815Z,15.88
2017-08-11T05:43:41.967Z,15.84
2017-08-11T05:46:11.051Z,15.79
2017-08-11T05:48:40.117Z,15.78
2017-08-11T05:51:09.176Z,15.87
2017-08-11T05:53:38.237Z,15.90
2017-08-11T05:56:07.294Z,15.98
2017-08-11T05:58:36.359Z,16.10
2017-08-11T06:01:05.447Z,16.18
2017-08-11T06:03:34.512Z,16.20
2017-08-11T06:06:03.764Z,16.26
2017-08-11T06:08:32.795Z,16.16
2017-08-11T06:11:01.863Z,16.11
2017-08-11T06:13:30.937Z,16.09
2017-08-11T06:16:00.013Z,16.10
2017-08-11T06:18:29.104Z,16.16
2017-08-11T06:20:58.155Z,16.18
2017-08-11T06:23:27.228Z,16.13
2017-08-11T06:25:56.385Z,16.14
2017-08-11T06:28:25.439Z,16.14
2017-08-11T06:30:54.503Z,16.21
2017-08-11T06:33:23.598Z,16.12
2017-08-11T06:35:52.641Z,16.07
2017-08-11T06:38:21.715Z,16.10
2017-08-11T06:40:50.796Z,16.23
2017-08-11T06:43:19.860Z,16.29
2017-08-11T06:45:49.124Z,16.28
2017-08-11T06:48:18.304Z,16.17
2017-08-11T06:50:47.359Z,16.21
2017-08-11T06:53:16.411Z,16.23
2017-08-11T06:55:45.496Z,16.26
2017-08-11T06:58:14.572Z,16.23
2017-08-11T07:00:43.607Z,16.22
2017-08-11T07:03:12.720Z,16.17
2017-08-11T07:05:41.863Z,16.13
2017-08-11T07:08:10.923Z,16.18
2017-08-11T07:10:40.003Z,16.18
2017-08-11T07:13:09.061Z,16.20
2017-08-11T07:15:38.143Z,16.20
2017-08-11T07:18:07.259Z,16.21
2017-08-11T07:20:36.294Z,16.26
2017-08-11T07:23:05.339Z,16.29
2017-08-11T07:25:34.412Z,16.34
2017-08-11T07:28:03.502Z,16.37
2017-08-11T07:30:32.571Z,16.36
2017-08-11T07:33:01.876Z,16.30
2017-08-11T07:35:30.955Z,16.27
2017-08-11T07:38:00.004Z,16.33
2017-08-11T07:40:29.824Z,16.26
2017-08-11T07:42:58.901Z,16.31
2017-08-11T07:45:27.985Z,16.32
2017-08-11T07:47:57.011Z,16.31
2017-08-11T07:50:26.074Z,16.26
2017-08-11T07:52:55.148Z,16.23
2017-08-11T07:55:24.261Z,16.12
2017-08-11T07:57:53.323Z,15.91
2017-08-11T08:00:22.408Z,15.87
2017-08-11T08:02:51.653Z,15.94
2017-08-11T08:05:20.727Z,15.84
2017-08-11T08:07:49.815Z,15.84
2017-08-11T08:10:18.879Z,15.94
2017-08-11T08:12:47.976Z,16.05
2017-08-11T08:15:17.112Z,16.20
2017-08-11T08:17:46.139Z,16.33
2017-08-11T08:20:15.252Z,16.48
2017-08-11T08:22:44.322Z,16.55
2017-08-11T08:25:13.397Z,16.63
2017-08-11T08:27:42.447Z,16.70
2017-08-11T08:30:11.779Z,16.74
2017-08-11T08:32:40.821Z,16.67
2017-08-11T08:35:09.933Z,16.60
2017-08-11T08:37:38.991Z,16.45
2017-08-11T08:40:08.060Z,16.38
2017-08-11T08:42:37.124Z,16.41
2017-08-11T08:45:06.203Z,16.38
2017-08-11T08:47:35.246Z,16.39
2017-08-11T08:50:04.355Z,16.40
2017-08-11T08:52:33.409Z,16.31
2017-08-11T08:55:02.512Z,16.32
2017-08-11T08:57:31.553Z,16.35
2017-08-11T09:00:00.677Z,16.30
2017-08-11T09:02:29.787Z,16.25
2017-08-11T09:04:58.855Z,16.17
2017-08-11T09:07:27.895Z,16.21
2017-08-11T09:09:56.973Z,16.17
2017-08-11T09:12:26.032Z,16.20
2017-08-11T09:14:55.116Z,16.26
2017-08-11T09:17:24.176Z,16.27
2017-08-11T09:19:53.252Z,16.29
2017-08-11T09:22:22.333Z,16.38
2017-08-11T09:25:08.935Z,16.38
2017-08-11T09:27:55.601Z,16.33
2017-08-11T09:30:42.137Z,16.37
2017-08-11T09:33:28.737Z,16.35
2017-08-11T09:36:15.259Z,16.43
2017-08-11T09:38:44.355Z,16.45
2017-08-11T09:41:13.401Z,16.43
2017-08-11T09:43:42.473Z,16.38
2017-08-11T09:46:11.542Z,16.30
2017-08-11T09:48:40.613Z,16.34
2017-08-11T09:51:09.706Z,16.35
2017-08-11T09:53:38.768Z,16.43
2017-08-11T09:56:07.857Z,16.42
2017-08-11T09:58:36.917Z,16.46
2017-08-11T10:01:05.983Z,16.47
2017-08-11T10:03:35.067Z,16.44
2017-08-11T10:06:04.128Z,16.37
2017-08-11T10:08:33.204Z,16.42
2017-08-11T10:11:02.275Z,16.41
2017-08-11T10:13:31.342Z,16.49
2017-08-11T10:16:00.400Z,16.55
2017-08-11T10:18:29.493Z,16.60
2017-08-11T10:20:58.556Z,16.57
2017-08-11T10:23:27.637Z,16.60
2017-08-11T10:25:56.690Z,16.57
2017-08-11T10:28:25.779Z,16.52
2017-08-11T10:30:54.864Z,16.51
2017-08-11T10:33:23.898Z,16.49
2017-08-11T10:35:52.976Z,16.49
2017-08-11T10:38:22.092Z,16.56
2017-08-11T10:40:51.177Z,16.68
2017-08-11T10:43:20.242Z,16.70
2017-08-11T10:45:49.303Z,16.78
2017-08-11T10:48:18.366Z,16.82
2017-08-11T10:50:47.447Z,16.79
2017-08-11T10:53:16.491Z,16.75
2017-08-11T10:55:45.565Z,16.80
2017-08-11T10:58:14.624Z,16.71
2017-08-11T11:00:43.692Z,16.65
2017-08-11T11:03:12.846Z,16.66
2017-08-11T11:05:41.886Z,16.68
2017-08-11T11:08:10.964Z,16.69
2017-08-11T11:10:40.039Z,16.67
2017-08-11T11:13:09.164Z,16.75
2017-08-11T11:15:38.285Z,16.83
2017-08-11T11:18:07.344Z,16.88
2017-08-11T11:20:36.436Z,16.79
2017-08-11T11:23:05.494Z,16.73
2017-08-11T11:25:34.580Z,16.79
2017-08-11T11:28:03.644Z,16.76
2017-08-11T11:30:32.735Z,16.73
2017-08-11T11:33:01.787Z,16.78
2017-08-11T11:35:30.858Z,16.92
2017-08-11T11:37:59.945Z,16.97
2017-08-11T11:40:29.013Z,16.98
2017-08-11T11:42:58.096Z,16.98
2017-08-11T11:45:27.186Z,16.91
2017-08-11T11:47:56.264Z,16.94
2017-08-11T11:50:25.385Z,16.99
2017-08-11T11:52:54.653Z,17.11
2017-08-11T11:55:23.827Z,17.11
2017-08-11T11:57:52.858Z,17.20
2017-08-11T12:00:21.973Z,17.26
2017-08-11T12:02:51.007Z,17.32
2017-08-11T12:05:20.075Z,17.19
2017-08-11T12:07:49.135Z,17.21
2017-08-11T12:10:18.217Z,17.25
2017-08-11T12:12:47.299Z,17.26
2017-08-11T12:15:16.372Z,17.26
2017-08-11T12:17:45.428Z,17.20
2017-08-11T12:20:14.544Z,17.18
2017-08-11T12:22:43.603Z,17.09
2017-08-11T12:25:12.685Z,17.06
2017-08-11T12:27:41.742Z,17.04
2017-08-11T12:30:10.868Z,16.89
2017-08-11T12:32:39.883Z,16.71
2017-08-11T12:35:08.972Z,16.60
2017-08-11T12:37:38.038Z,16.55
2017-08-11T12:40:07.143Z,16.60
2017-08-11T12:42:36.195Z,16.65
2017-08-11T12:45:05.372Z,16.58
2017-08-11T12:47:34.426Z,16.41
2017-08-11T12:50:03.523Z,16.37
2017-08-11T12:52:32.590Z,16.44
2017-08-11T12:55:01.779Z,16.50
2017-08-11T12:57:30.806Z,16.59
2017-08-11T12:59:59.867Z,16.66
2017-08-11T13:02:28.935Z,16.71
2017-08-11T13:04:58.092Z,16.76
2017-08-11T13:07:27.164Z,16.83
2017-08-11T13:09:56.220Z,16.88
2017-08-11T13:12:25.288Z,16.91
2017-08-11T13:14:54.367Z,16.90
2017-08-11T13:17:23.689Z,16.93
2017-08-11T13:19:52.755Z,16.94
2017-08-11T13:22:21.800Z,17.01
2017-08-11T13:24:50.867Z,17.05
2017-08-11T13:27:20.050Z,17.02
2017-08-11T13:29:49.117Z,17.03
2017-08-11T13:32:18.156Z,17.01
2017-08-11T13:34:47.269Z,16.95
2017-08-11T13:37:16.337Z,16.93
2017-08-11T13:39:45.427Z,16.91
2017-08-11T13:42:14.484Z,16.92
2017-08-11T13:44:43.568Z,16.93
2017-08-11T13:47:12.675Z,16.97
2017-08-11T13:49:41.701Z,17.04
2017-08-11T13:52:11.056Z,17.11
2017-08-11T13:54:40.135Z,17.12
2017-08-11T13:57:09.259Z,17.17
2017-08-11T13:59:38.306Z,17.15
2017-08-11T14:02:07.377Z,17.11
2017-08-11T14:04:36.446Z,17.00
2017-08-11T14:07:05.753Z,16.84
2017-08-11T14:09:34.852Z,16.87
2017-08-11T14:12:03.945Z,16.84
2017-08-11T14:14:33.018Z,16.76
2017-08-11T14:17:02.145Z,16.70
2017-08-11T14:19:31.195Z,16.69
2017-08-11T14:22:00.252Z,16.58
2017-08-11T14:24:34.851Z,16.44
2017-08-11T14:27:03.951Z,16.41
2017-08-11T14:29:33.010Z,16.40
2017-08-11T14:32:02.094Z,16.39
2017-08-11T14:34:31.172Z,16.39
2017-08-11T14:37:00.255Z,16.40
2017-08-11T14:39:29.324Z,16.47
2017-08-11T14:41:58.389Z,16.52
2017-08-11T14:44:27.437Z,16.44
2017-08-11T14:46:56.487Z,16.42
2017-08-11T14:49:25.551Z,16.44
2017-08-11T14:51:54.624Z,16.48
2017-08-11T14:54:23.695Z,16.42
2017-08-11T14:56:52.780Z,16.39
2017-08-11T14:59:21.855Z,16.39
2017-08-11T15:01:50.928Z,16.34
2017-08-11T15:04:19.997Z,16.21
2017-08-11T15:06:49.070Z,16.19
2017-08-11T15:09:18.118Z,16.13
2017-08-11T15:11:47.184Z,16.07
2017-08-11T15:14:16.260Z,15.95
2017-08-11T15:16:45.323Z,15.88
2017-08-11T15:19:14.383Z,15.87
2017-08-11T15:21:43.439Z,15.91
2017-08-11T15:24:12.540Z,16.01
2017-08-11T15:26:41.625Z,16.09
2017-08-11T15:29:10.669Z,16.04
2017-08-11T15:31:39.762Z,16.05
2017-08-11T15:34:09.031Z,16.05
2017-08-11T15:36:38.145Z,15.96
2017-08-11T15:39:07.205Z,15.96
2017-08-11T15:41:36.303Z,15.97
2017-08-11T15:44:05.351Z,16.02
2017-08-11T15:46:34.418Z,15.96
2017-08-11T15:49:03.493Z,15.94
2017-08-11T15:51:32.633Z,16.01
2017-08-11T15:54:01.711Z,16.06
2017-08-11T15:56:30.792Z,16.17
2017-08-11T15:58:59.880Z,16.21
2017-08-11T16:01:28.985Z,16.25
2017-08-11T16:03:58.264Z,16.25
2017-08-11T16:06:27.505Z,16.28
2017-08-11T16:08:56.567Z,16.31
2017-08-11T16:11:25.645Z,16.27
2017-08-11T16:13:54.706Z,16.21
2017-08-11T16:16:23.792Z,16.14
2017-08-11T16:18:52.860Z,16.15
2017-08-11T16:21:21.920Z,16.24
2017-08-11T16:23:51.005Z,16.33
2017-08-11T16:26:20.093Z,16.26
2017-08-11T16:28:49.195Z,16.12
2017-08-11T16:31:18.276Z,16.14
2017-08-11T16:33:47.379Z,16.20
2017-08-11T16:36:16.451Z,16.19
2017-08-11T16:38:45.495Z,16.24
2017-08-11T16:41:14.539Z,16.25
2017-08-11T16:43:43.620Z,16.34
2017-08-11T16:46:12.716Z,16.38
2017-08-11T16:48:41.844Z,16.34
2017-08-11T16:51:10.906Z,16.20
2017-08-11T16:53:39.984Z,16.10
2017-08-11T16:56:09.083Z,16.14
2017-08-11T16:58:38.139Z,16.14
2017-08-11T17:01:07.180Z,16.20
2017-08-11T17:03:36.270Z,16.26
2017-08-11T17:06:05.340Z,16.31
2017-08-11T17:08:34.399Z,16.39
2017-08-11T17:11:03.474Z,16.44
2017-08-11T17:13:32.569Z,16.41
2017-08-11T17:16:01.640Z,16.47
2017-08-11T17:18:30.715Z,16.56
2017-08-11T17:20:59.796Z,16.64
2017-08-11T17:23:28.860Z,16.64
2017-08-11T17:25:57.920Z,16.64
2017-08-11T17:28:27.011Z,16.67
2017-08-11T17:30:56.155Z,16.67
2017-08-11T17:33:25.227Z,16.70
2017-08-11T17:35:54.289Z,16.71
2017-08-11T17:38:23.357Z,16.71
2017-08-11T17:40:52.464Z,16.69
2017-08-11T17:43:21.527Z,16.69
2017-08-11T17:45:50.621Z,16.70
2017-08-11T17:48:19.647Z,16.73
2017-08-11T17:50:48.707Z,16.70
2017-08-11T17:53:17.768Z,16.66
2017-08-11T17:55:46.937Z,16.66
2017-08-11T17:58:16.020Z,16.65
2017-08-11T18:00:45.087Z,16.62
2017-08-11T18:03:14.176Z,16.59
2017-08-11T18:05:43.273Z,16.55
2017-08-11T18:08:12.325Z,16.55
2017-08-11T18:10:41.383Z,16.57
2017-08-11T18:13:10.502Z,16.56
2017-08-11T18:15:39.544Z,16.59
2017-08-11T18:18:08.633Z,16.59
2017-08-11T18:20:37.668Z,16.60
2017-08-11T18:23:06.755Z,16.64
2017-08-11T18:25:35.823Z,16.59
2017-08-11T18:28:05.019Z,16.60
2017-08-11T18:30:34.088Z,16.52
2017-08-11T18:33:03.140Z,16.51
2017-08-11T18:35:32.433Z,16.50
2017-08-11T18:38:01.503Z,16.49
2017-08-11T18:40:30.592Z,16.41
2017-08-11T18:42:59.664Z,16.46
2017-08-11T18:45:28.742Z,16.48
2017-08-11T18:47:57.795Z,16.53
2017-08-11T18:50:26.888Z,16.58
2017-08-11T18:52:55.975Z,16.63
2017-08-11T18:55:25.046Z,16.65
2017-08-11T18:57:54.352Z,16.66
2017-08-11T19:00:23.415Z,16.65
2017-08-11T19:02:52.505Z,16.61
2017-08-11T19:05:21.623Z,16.62
2017-08-11T19:07:51.032Z,16.63
2017-08-11T19:10:20.226Z,16.63
2017-08-11T19:12:49.401Z,16.64
2017-08-11T19:15:18.537Z,16.65
2017-08-11T19:17:47.833Z,16.65
2017-08-11T19:20:17.010Z,16.65
2017-08-11T19:22:46.145Z,16.64
2017-08-11T19:25:15.569Z,16.63
2017-08-11T19:27:45.082Z,16.62
2017-08-11T19:30:14.540Z,16.65
2017-08-11T19:32:43.631Z,16.65
2017-08-11T19:35:12.977Z,16.63
2017-08-11T19:37:42.390Z,16.63
2017-08-11T19:40:11.902Z,16.59
2017-08-11T19:42:41.074Z,16.58
2017-08-11T19:45:10.515Z,16.59
2017-08-11T19:47:39.915Z,16.59
2017-08-11T19:50:09.164Z,16.59
2017-08-11T19:52:38.749Z,16.60
2017-08-11T19:55:08.409Z,16.59
2017-08-11T19:57:37.575Z,16.61
2017-08-11T20:00:06.753Z,16.61
2017-08-11T20:02:36.092Z,16.59
2017-08-11T20:05:05.370Z,16.57
2017-08-11T20:07:34.516Z,16.54
2017-08-11T20:10:03.741Z,16.55
2017-08-11T20:12:32.896Z,16.52
2017-08-11T20:15:02.230Z,16.50
2017-08-11T20:17:31.441Z,16.49
2017-08-11T20:20:00.761Z,16.48
2017-08-11T20:22:30.109Z,16.50
2017-08-11T20:24:59.248Z,16.47
2017-08-11T20:27:28.600Z,16.46
2017-08-11T20:29:57.731Z,16.45
2017-08-11T20:32:26.810Z,16.47
2017-08-11T20:34:55.892Z,16.48
2017-08-11T20:37:25.067Z,16.47
2017-08-11T20:39:54.114Z,16.46
2017-08-11T20:42:23.179Z,16.42
2017-08-11T20:44:52.248Z,16.39
2017-08-11T20:47:21.347Z,16.34
2017-08-11T20:49:50.407Z,16.33
2017-08-11T20:52:19.498Z,16.29
2017-08-11T20:54:48.570Z,16.28
2017-08-11T20:57:17.652Z,16.26
2017-08-11T20:59:46.956Z,16.28
2017-08-11T21:02:16.009Z,16.29
2017-08-11T21:04:45.073Z,16.24
2017-08-11T21:07:14.543Z,16.22
2017-08-11T21:09:43.649Z,16.22
2017-08-11T21:12:12.765Z,16.20
2017-08-11T21:14:41.814Z,16.15
2017-08-11T21:17:10.882Z,16.13
2017-08-11T21:19:40.146Z,16.10
2017-08-11T21:22:09.214Z,16.08
2017-08-11T21:24:38.310Z,16.08
2017-08-11T21:27:07.377Z,16.12
2017-08-11T21:29:36.452Z,16.09
2017-08-11T21:32:05.587Z,16.07
2017-08-11T21:34:34.607Z,16.05
2017-08-11T21:37:03.677Z,16.00
2017-08-11T21:39:32.757Z,16.03
2017-08-11T21:42:01.844Z,16.00
2017-08-11T21:44:30.886Z,15.97
2017-08-11T21:46:59.968Z,15.96
2017-08-11T21:49:29.035Z,15.97
2017-08-11T21:51:58.124Z,15.93
2017-08-11T21:54:27.196Z,15.94
2017-08-11T21:56:56.245Z,15.93
2017-08-11T21:59:25.317Z,15.96
2017-08-11T22:01:54.380Z,15.97
2017-08-11T22:04:23.453Z,15.96
2017-08-11T22:06:52.535Z,15.95
2017-08-11T22:09:21.581Z,15.91
2017-08-11T22:11:50.638Z,15.92
2017-08-11T22:14:19.721Z,15.94
2017-08-11T22:16:48.783Z,15.96
2017-08-11T22:19:17.853Z,15.99
2017-08-11T22:21:46.940Z,15.96
2017-08-11T22:24:16.014Z,15.92
2017-08-11T22:26:45.126Z,15.93
2017-08-11T22:29:14.200Z,15.92
2017-08-11T22:31:43.265Z,15.92
2017-08-11T22:34:12.387Z,15.89
2017-08-11T22:36:41.451Z,15.93
2017-08-11T22:39:10.508Z,15.98
2017-08-11T22:41:39.577Z,15.99
2017-08-11T22:44:08.788Z,15.98
2017-08-11T22:46:37.864Z,16.02
2017-08-11T22:49:06.952Z,16.06
2017-08-11T22:51:36.000Z,16.05
2017-08-11T22:54:05.090Z,16.04
2017-08-11T22:56:34.135Z,16.05
2017-08-11T22:59:03.239Z,16.08
2017-08-11T23:01:32.323Z,16.06
2017-08-11T23:04:01.412Z,16.09
2017-08-11T23:06:30.488Z,16.03
2017-08-11T23:08:59.576Z,15.99
2017-08-11T23:11:28.600Z,16.00
2017-08-11T23:13:57.707Z,16.00
2017-08-11T23:16:26.775Z,16.04
2017-08-11T23:18:55.885Z,16.03
2017-08-11T23:21:25.816Z,16.01
2017-08-11T23:23:54.873Z,15.99
2017-08-11T23:26:23.943Z,15.92
2017-08-11T23:28:53.015Z,15.94
2017-08-11T23:31:22.072Z,15.90
2017-08-11T23:33:51.131Z,15.91
2017-08-11T23:36:20.179Z,15.93
2017-08-11T23:38:49.272Z,15.93
2017-08-11T23:41:18.335Z,15.99
2017-08-11T23:43:47.391Z,16.03
2017-08-11T23:46:16.504Z,16.05
2017-08-11T23:48:45.771Z,16.04
2017-08-11T23:51:14.995Z,16.02
2017-08-11T23:53:44.116Z,16.02
2017-08-11T23:56:13.181Z,16.03
2017-08-11T23:58:42.235Z,16.03
